CMA CGM Herodote — MFEP — position and weather

sailwx.info

Track history (hours):
 
Tides and Currents Weather Stations Pressure Air Temp Water Temp Dewpoint Dewpoint Depression Visibility Wind Speed Wind Dir Waves Ship Positions

CMA CGM Herodote

Last reported at 2016-Sep-28 12:32 UTC. Time now 2016-Sep-28 15:24 UTC.
Position N 59°53' E 030°11'.

Length 170 m; draft 9.9 m.

Type: Ship (hazmat cat A). MMSI: 235051085.

Date/timePositionNaut miles runAvg speedWind from/ knotsBaromVisibWave heightAir tempDewpointWater temp
2016-Sep-28 12:32N 59°53' E 030°11'0 0.0
2016-Sep-28 08:32N 59°53' E 030°11'0 0.0
2016-Sep-28 03:32N 59°53' E 030°11'3 3.5
2016-Sep-28 02:33N 59°54' E 030°05'1010.5
2016-Sep-28 01:33N 59°59' E 029°46'3 1.6
2016-Sep-27 23:33N 59°56' E 029°42'0 0.0
2016-Sep-27 19:33N 59°56' E 029°42'0 0.0
2016-Sep-27 14:33N 59°56' E 029°42'0 0.0
2016-Sep-27 13:26N 59°56' E 029°42'0 0.0
2016-Sep-27 10:32N 59°56' E 029°42'21 2.1
2016-Sep-27 00:30N 60°01' E 029°01'34 8.7
2016-Sep-26 20:33N 60°10' E 027°54'1414.0
2016-Sep-26 19:33N 60°06' E 027°28'6516.2
2016-Sep-26 15:33N 59°49' E 025°23'3517.7
2016-Sep-26 13:33N 59°41' E 024°14'3618.1
2016-Sep-26 11:33N 59°30' E 023°06'33218.2
2016-Sep-25 17:20N 55°42' E 015°37'1518.7
2016-Sep-25 16:33N 55°34' E 015°14'1918.9
2016-Sep-25 15:33N 55°25' E 014°45'1918.6
2016-Sep-25 14:34N 55°12' E 014°22'3618.0
2016-Sep-25 12:33N 54°53' E 013°29'1818.4
2016-Sep-25 11:33N 54°48' E 012°58'1817.6
2016-Sep-25 10:33N 54°40' E 012°31'1716.7
2016-Sep-25 09:33N 54°27' E 012°12'2612.8
2016-Sep-25 07:33N 54°30' E 011°29'3310.9
2016-Sep-25 04:33N 54°58' E 010°58'5412.1
2016-Sep-25 00:06N 55°52' E 010°52'2213.0
2016-Sep-24 22:23N 56°10' E 011°15'2016.8
2016-Sep-24 21:12N 56°27' E 011°32'2816.7
2016-Sep-24 19:33N 56°54' E 011°46'1818.0
2016-Sep-24 18:33N 57°11' E 011°36'1818.3
2016-Sep-24 17:33N 57°28' E 011°24'1818.4
2016-Sep-24 16:33N 57°41' E 010°59'28317.4
2016-Sep-24 00:19N 54°13' E 005°15'9219.3
2016-Sep-23 19:34N 52°50' E 004°11'2411.7
2016-Sep-23 17:32N 52°29' E 003°53'1514.9
2016-Sep-23 16:33N 52°14' E 003°53'1212.0
2016-Sep-23 15:34N 52°02' E 003°54'6 3.1
2016-Sep-23 13:33N 51°57' E 003°59'0 0.0
2016-Sep-23 09:33N 51°57' E 003°59'2 0.7
2016-Sep-23 06:26N 51°59' E 004°02'0 0.0
2016-Sep-23 04:32N 51°59' E 004°02'0 0.0
2016-Sep-23 03:32N 51°59' E 004°02'0 0.0
2016-Sep-23 02:32N 51°59' E 004°02'0 0.0
2016-Sep-23 01:32N 51°59' E 004°02'0 0.0
2016-Sep-23 00:29N 51°59' E 004°02'0 0.0
2016-Sep-22 23:31N 51°59' E 004°02'0 0.0
2016-Sep-22 20:32N 51°59' E 004°02'2 0.3
2016-Sep-22 12:31N 51°57' E 004°04'6 0.7
2016-Sep-22 04:33N 52°00' E 003°57'1212.2
2016-Sep-22 03:34N 51°58' E 003°37'29 9.8
2016-Sep-22 00:33N 51°34' E 003°09'1010.3
2016-Sep-21 23:34N 51°25' E 003°01'1413.5
2016-Sep-21 22:33N 51°25' E 003°23'3210.7
2016-Sep-21 19:33N 51°21' E 004°14'4 1.2
2016-Sep-21 16:22N 51°18' E 004°16'0 0.0
2016-Sep-21 09:31N 51°18' E 004°16'0 0.0
2016-Sep-21 08:16N 51°18' E 004°16'9 3.2
2016-Sep-21 05:34N 51°22' E 004°04'18 9.1
2016-Sep-21 03:33N 51°26' E 003°36'1515.0
2016-Sep-21 02:33N 51°24' E 003°12'10711.9
2016-Sep-20 17:33N 51°27' E 000°20'1 0.2
2016-Sep-20 14:33N 51°28' E 000°20'0 0.0
2016-Sep-20 13:33N 51°28' E 000°20'0 0.0
2016-Sep-20 10:33N 51°28' E 000°20'5 2.5
2016-Sep-20 08:33N 51°29' E 000°28'1110.8
2016-Sep-20 07:33N 51°30' E 000°45'1111.3
2016-Sep-20 06:33N 51°30' E 001°03'35 8.7
2016-Sep-20 02:33N 50°59' E 001°30'11816.9
2016-Sep-19 19:32N 50°07' W 001°18'5317.6
2016-Sep-19 16:33N 49°52' W 002°36'3216.3
2016-Sep-19 14:33N 49°38' W 003°21'8116.1
2016-Sep-19 09:32N 48°57' W 005°08'  
Track history (hours):
 
Tides and Currents Weather Stations Pressure Air Temp Water Temp Dewpoint Dewpoint Depression Visibility Wind Speed Wind Dir Waves Ship Positions

CMA CGM Herodote

Last reported at 2016-Sep-28 12:32 UTC. Time now 2016-Sep-28 15:24 UTC.
Position N 59°53' E 030°11'.

Length 170 m; draft 9.9 m.

Type: Ship (hazmat cat A). MMSI: 235051085.

Date/timePositionNaut miles runAvg speedWind from/ knotsBaromVisibWave heightAir tempDewpointWater temp
2016-Sep-28 12:32N 59°53' E 030°11'0 0.0
2016-Sep-28 08:32N 59°53' E 030°11'0 0.0
2016-Sep-28 03:32N 59°53' E 030°11'3 3.5
2016-Sep-28 02:33N 59°54' E 030°05'1010.5
2016-Sep-28 01:33N 59°59' E 029°46'3 1.6
2016-Sep-27 23:33N 59°56' E 029°42'0 0.0
2016-Sep-27 19:33N 59°56' E 029°42'0 0.0
2016-Sep-27 14:33N 59°56' E 029°42'0 0.0
2016-Sep-27 13:26N 59°56' E 029°42'0 0.0
2016-Sep-27 10:32N 59°56' E 029°42'21 2.1
2016-Sep-27 00:30N 60°01' E 029°01'34 8.7
2016-Sep-26 20:33N 60°10' E 027°54'1414.0
2016-Sep-26 19:33N 60°06' E 027°28'6516.2
2016-Sep-26 15:33N 59°49' E 025°23'3517.7
2016-Sep-26 13:33N 59°41' E 024°14'3618.1
2016-Sep-26 11:33N 59°30' E 023°06'33218.2
2016-Sep-25 17:20N 55°42' E 015°37'1518.7
2016-Sep-25 16:33N 55°34' E 015°14'1918.9
2016-Sep-25 15:33N 55°25' E 014°45'1918.6
2016-Sep-25 14:34N 55°12' E 014°22'3618.0
2016-Sep-25 12:33N 54°53' E 013°29'1818.4
2016-Sep-25 11:33N 54°48' E 012°58'1817.6
2016-Sep-25 10:33N 54°40' E 012°31'1716.7
2016-Sep-25 09:33N 54°27' E 012°12'2612.8
2016-Sep-25 07:33N 54°30' E 011°29'3310.9
2016-Sep-25 04:33N 54°58' E 010°58'5412.1
2016-Sep-25 00:06N 55°52' E 010°52'2213.0
2016-Sep-24 22:23N 56°10' E 011°15'2016.8
2016-Sep-24 21:12N 56°27' E 011°32'2816.7
2016-Sep-24 19:33N 56°54' E 011°46'1818.0
2016-Sep-24 18:33N 57°11' E 011°36'1818.3
2016-Sep-24 17:33N 57°28' E 011°24'1818.4
2016-Sep-24 16:33N 57°41' E 010°59'28317.4
2016-Sep-24 00:19N 54°13' E 005°15'9219.3
2016-Sep-23 19:34N 52°50' E 004°11'2411.7
2016-Sep-23 17:32N 52°29' E 003°53'1514.9
2016-Sep-23 16:33N 52°14' E 003°53'1212.0
2016-Sep-23 15:34N 52°02' E 003°54'6 3.1
2016-Sep-23 13:33N 51°57' E 003°59'0 0.0
2016-Sep-23 09:33N 51°57' E 003°59'2 0.7
2016-Sep-23 06:26N 51°59' E 004°02'0 0.0
2016-Sep-23 04:32N 51°59' E 004°02'0 0.0
2016-Sep-23 03:32N 51°59' E 004°02'0 0.0
2016-Sep-23 02:32N 51°59' E 004°02'0 0.0
2016-Sep-23 01:32N 51°59' E 004°02'0 0.0
2016-Sep-23 00:29N 51°59' E 004°02'0 0.0
2016-Sep-22 23:31N 51°59' E 004°02'0 0.0
2016-Sep-22 20:32N 51°59' E 004°02'2 0.3
2016-Sep-22 12:31N 51°57' E 004°04'6 0.7
2016-Sep-22 04:33N 52°00' E 003°57'1212.2
2016-Sep-22 03:34N 51°58' E 003°37'29 9.8
2016-Sep-22 00:33N 51°34' E 003°09'1010.3
2016-Sep-21 23:34N 51°25' E 003°01'1413.5
2016-Sep-21 22:33N 51°25' E 003°23'3210.7
2016-Sep-21 19:33N 51°21' E 004°14'4 1.2
2016-Sep-21 16:22N 51°18' E 004°16'0 0.0
2016-Sep-21 09:31N 51°18' E 004°16'0 0.0
2016-Sep-21 08:16N 51°18' E 004°16'9 3.2
2016-Sep-21 05:34N 51°22' E 004°04'18 9.1
2016-Sep-21 03:33N 51°26' E 003°36'1515.0
2016-Sep-21 02:33N 51°24' E 003°12'10711.9
2016-Sep-20 17:33N 51°27' E 000°20'1 0.2
2016-Sep-20 14:33N 51°28' E 000°20'0 0.0
2016-Sep-20 13:33N 51°28' E 000°20'0 0.0
2016-Sep-20 10:33N 51°28' E 000°20'5 2.5
2016-Sep-20 08:33N 51°29' E 000°28'1110.8
2016-Sep-20 07:33N 51°30' E 000°45'1111.3
2016-Sep-20 06:33N 51°30' E 001°03'35 8.7
2016-Sep-20 02:33N 50°59' E 001°30'11816.9
2016-Sep-19 19:32N 50°07' W 001°18'5317.6
2016-Sep-19 16:33N 49°52' W 002°36'3216.3
2016-Sep-19 14:33N 49°38' W 003°21'8116.1
2016-Sep-19 09:32N 48°57' W 005°08'  

Dump ship's entire track history